Time;durP1;ratioP1;P1;durP2;ratioP2;P2;SDS_P1;SDS_P2;PMS_P1;PMS_P2;Temp;Humidity;BMP_temperature;BMP_pressure;BME280_temperature;BME280_humidity;BME280_pressure;Samples;Min_cycle;Max_cycle;Signal;HPM_P1;HPM_P2
2022/05/17 00:01:47;;;;;;;3.47;0.90;;;;;;;18.36;48.73;99930.33;1716919;82;21182;-56
2022/05/17 00:04:16;;;;;;;2.67;0.80;;;;;;;18.35;49.01;99938.77;1708501;82;21346;-54
2022/05/17 00:06:44;;;;;;;1.37;0.60;;;;;;;18.16;49.69;99941.38;1689308;84;21896;-56
2022/05/17 00:09:11;;;;;;;2.03;1.00;;;;;;;18.18;49.71;99942.75;1670576;84;21501;-56
2022/05/17 00:11:40;;;;;;;2.50;1.00;;;;;;;18.31;49.58;99939.50;1692024;84;21648;-61
2022/05/17 00:14:07;;;;;;;1.97;0.73;;;;;;;18.30;49.32;99932.11;1697868;84;21938;-57
2022/05/17 00:16:34;;;;;;;2.27;0.87;;;;;;;18.39;49.29;99939.88;1699151;84;22072;-55
2022/05/17 00:19:03;;;;;;;3.30;1.10;;;;;;;18.38;49.06;99933.54;1690746;84;21222;-55
2022/05/17 00:21:30;;;;;;;2.30;0.90;;;;;;;18.43;49.05;99930.44;1704886;83;20979;-55
2022/05/17 00:23:58;;;;;;;1.43;0.67;;;;;;;18.28;49.38;99932.06;1684570;83;21300;-57
2022/05/17 00:26:25;;;;;;;3.63;1.00;;;;;;;18.15;50.05;99935.31;1698127;83;22273;-55
2022/05/17 00:28:52;;;;;;;1.37;0.60;;;;;;;18.27;49.88;99932.59;1705887;82;21275;-54
2022/05/17 00:31:20;;;;;;;2.07;0.90;;;;;;;18.28;49.98;99943.94;1685311;85;21804;-55
2022/05/17 00:33:47;;;;;;;3.87;1.13;;;;;;;18.25;50.24;99946.52;1688312;82;21203;-58
2022/05/17 00:36:14;;;;;;;2.20;0.80;;;;;;;18.28;50.32;99938.66;1689903;84;21601;-55
2022/05/17 00:38:43;;;;;;;1.97;0.80;;;;;;;18.16;50.92;99951.41;1690167;84;22298;-54
2022/05/17 00:41:10;;;;;;;2.77;0.97;;;;;;;18.36;50.59;99954.87;1729884;82;21713;-54
2022/05/17 00:46:57;;;;;;;3.03;0.90;;;;;;;18.30;50.95;99937.39;1648522;86;21352;-56
2022/05/17 00:49:43;;;;;;;2.57;0.70;;;;;;;17.75;51.92;99940.20;1676585;84;21459;-56
2022/05/17 00:52:20;;;;;;;2.40;1.10;;;;;;;17.47;54.92;99948.11;1673700;84;21312;-55
2022/05/17 00:54:48;;;;;;;3.80;1.00;;;;;;;17.90;53.53;99940.17;1701444;82;21831;-57
2022/05/17 00:57:26;;;;;;;3.23;1.27;;;;;;;18.13;52.73;99940.02;1708022;82;21782;-55
2022/05/17 00:59:53;;;;;;;2.63;1.00;;;;;;;18.05;52.22;99946.22;1700215;82;21229;-56
2022/05/17 01:02:21;;;;;;;2.50;1.07;;;;;;;18.30;51.51;99943.19;1702981;82;21247;-58
2022/05/17 01:04:48;;;;;;;3.13;0.97;;;;;;;18.09;52.47;99946.81;1703110;83;21510;-62
2022/05/17 01:07:18;;;;;;;3.10;0.90;;;;;;;18.04;52.99;99948.59;1707683;82;21339;-55
2022/05/17 01:09:46;;;;;;;3.33;1.03;;;;;;;17.92;53.66;99949.98;1710365;82;21355;-57
2022/05/17 01:12:13;;;;;;;4.50;1.20;;;;;;;18.03;53.87;99955.67;1700286;82;21285;-63
2022/05/17 01:15:00;;;;;;;3.10;1.30;;;;;;;17.99;54.18;99953.23;1704345;84;21391;-62
2022/05/17 01:17:32;;;;;;;2.73;1.07;;;;;;;17.81;54.99;99950.84;1704695;84;21235;-57
2022/05/17 01:19:59;;;;;;;1.77;0.80;;;;;;;17.96;55.24;99948.47;1722052;82;21244;-55
2022/05/17 01:22:26;;;;;;;2.30;0.97;;;;;;;18.01;55.42;99945.10;1701813;82;21221;-62
2022/05/17 01:24:54;;;;;;;4.27;1.73;;;;;;;17.90;56.13;99945.45;1700073;82;21219;-56
2022/05/17 01:27:38;;;;;;;2.80;1.13;;;;;;;17.84;55.94;99946.39;1702607;82;21392;-56
2022/05/17 01:30:07;;;;;;;2.03;0.80;;;;;;;17.77;56.80;99952.33;1703692;82;21242;-61
2022/05/17 01:32:34;;;;;;;2.93;1.30;;;;;;;17.83;56.49;99948.23;1704145;82;21722;-56
2022/05/17 01:35:01;;;;;;;3.43;1.10;;;;;;;17.69;57.27;99949.04;1728988;82;21300;-54
2022/05/17 01:37:28;;;;;;;3.87;1.03;;;;;;;17.80;56.90;99950.55;1731762;82;21580;-56
2022/05/17 01:39:56;;;;;;;2.77;1.10;;;;;;;17.78;57.60;99946.05;1728921;82;21310;-56
2022/05/17 01:42:23;;;;;;;3.87;1.80;;;;;;;17.77;57.82;99948.37;1725821;82;22188;-59
2022/05/17 01:44:51;;;;;;;7.77;2.27;;;;;;;17.77;57.99;99952.33;1700716;82;21145;-55
2022/05/17 01:47:19;;;;;;;15.53;7.83;;;;;;;17.62;58.05;99953.66;1721915;82;21291;-55
2022/05/17 01:49:48;;;;;;;8.18;4.28;;;;;;;17.57;57.08;99954.86;1715021;82;21333;-61
2022/05/17 01:52:16;;;;;;;10.80;5.00;;;;;;;17.53;56.35;99959.01;1723706;82;21154;-54
2022/05/17 01:54:43;;;;;;;14.00;6.67;;;;;;;17.73;54.91;99960.70;1700204;82;21259;-57
2022/05/17 01:57:10;;;;;;;14.57;7.10;;;;;;;17.66;54.90;99965.84;1714601;82;22268;-56
2022/05/17 01:59:39;;;;;;;20.90;9.40;;;;;;;17.70;53.64;99969.09;1731842;82;21368;-63
2022/05/17 02:02:07;;;;;;;19.82;10.90;;;;;;;17.84;51.97;99969.63;1721493;82;21196;-54
2022/05/17 02:04:34;;;;;;;22.07;11.77;;;;;;;17.82;50.71;99974.84;1722140;82;21024;-55
2022/05/17 02:07:03;;;;;;;25.87;13.47;;;;;;;18.13;48.00;99972.99;1680517;83;21827;-56
2022/05/17 02:09:32;;;;;;;28.10;14.03;;;;;;;18.24;46.45;99974.75;1672837;83;22320;-55
2022/05/17 02:12:01;;;;;;;32.23;14.37;;;;;;;18.34;45.18;99969.38;1684633;83;21308;-55
2022/05/17 02:14:29;;;;;;;28.53;13.80;;;;;;;18.35;44.76;99969.12;1697580;83;22480;-56
2022/05/17 02:17:00;;;;;;;29.87;15.67;;;;;;;18.37;44.15;99968.86;1680700;83;21323;-63
2022/05/17 02:19:29;;;;;;;29.03;14.97;;;;;;;18.38;43.79;99971.80;1699520;83;22213;-55
2022/05/17 02:21:56;;;;;;;30.47;14.83;;;;;;;18.40;43.03;99974.98;1669620;83;22022;-61
2022/05/17 02:24:27;;;;;;;29.37;16.40;;;;;;;18.56;42.70;99976.00;1704238;83;21659;-57
2022/05/17 02:26:54;;;;;;;30.83;15.77;;;;;;;18.66;42.29;99980.12;1691491;83;21239;-55
2022/05/17 02:29:23;;;;;;;32.87;16.63;;;;;;;18.82;41.74;99977.19;1699501;83;21135;-57
2022/05/17 02:31:51;;;;;;;32.40;16.07;;;;;;;18.86;40.99;99976.45;1685284;83;21581;-57
2022/05/17 02:34:19;;;;;;;34.77;16.63;;;;;;;19.08;40.25;99981.75;1705870;83;21301;-57
2022/05/17 02:36:46;;;;;;;33.73;16.70;;;;;;;19.12;39.39;99984.70;1673538;83;21385;-55
2022/05/17 02:39:14;;;;;;;32.30;17.10;;;;;;;19.22;39.13;99988.00;1677720;83;21266;-54
2022/05/17 02:41:42;;;;;;;35.10;15.97;;;;;;;19.34;38.44;99989.47;1685927;83;21311;-55
2022/05/17 02:44:11;;;;;;;33.87;17.27;;;;;;;19.35;37.75;99988.94;1709501;83;21343;-54
2022/05/17 02:46:39;;;;;;;33.17;17.63;;;;;;;19.36;37.73;99991.88;1690308;83;21311;-54
2022/05/17 02:49:07;;;;;;;37.57;18.40;;;;;;;19.35;37.38;99994.22;1704808;83;21340;-54
2022/05/17 02:51:36;;;;;;;34.93;18.47;;;;;;;19.31;37.40;99992.59;1685409;83;21876;-56
2022/05/17 02:54:06;;;;;;;35.60;20.23;;;;;;;19.28;37.39;99996.25;1711994;83;21311;-57
2022/05/17 02:56:33;;;;;;;34.03;19.10;;;;;;;19.24;37.51;100008.36;1712707;83;21759;-55
2022/05/17 02:59:01;;;;;;;44.97;22.00;;;;;;;19.31;37.41;100011.62;1688127;83;21814;-57
2022/05/17 03:01:29;;;;;;;49.93;21.27;;;;;;;19.37;37.14;100006.69;1701717;83;21381;-58
2022/05/17 03:03:56;;;;;;;54.63;25.27;;;;;;;19.47;37.23;100013.38;1693442;83;21383;-59
2022/05/17 03:06:23;;;;;;;44.17;23.87;;;;;;;19.31;37.08;100015.59;1727152;82;21333;-58
2022/05/17 03:08:52;;;;;;;46.03;24.47;;;;;;;19.67;37.07;99999.11;1694512;82;21249;-59
2022/05/17 03:11:19;;;;;;;43.90;23.90;;;;;;;19.67;37.07;99999.11;1704177;82;21411;-64
2022/05/17 03:13:47;;;;;;;46.97;23.83;;;;;;;19.69;37.15;100007.58;1696433;82;21830;-56
2022/05/17 03:16:15;;;;;;;44.30;23.00;;;;;;;19.88;36.81;100004.06;1686372;84;21464;-58
2022/05/17 03:18:42;;;;;;;49.63;23.83;;;;;;;20.04;36.85;100007.66;1693708;84;21381;-58
2022/05/17 03:21:10;;;;;;;44.27;23.03;;;;;;;20.28;36.63;100010.77;1667109;84;21400;-56
2022/05/17 03:23:37;;;;;;;45.10;23.20;;;;;;;20.39;36.56;100003.17;1666256;85;21389;-58
2022/05/17 03:26:04;;;;;;;43.70;21.93;;;;;;;20.68;36.11;100003.37;1728681;82;22092;-56
2022/05/17 03:28:32;;;;;;;45.90;22.23;;;;;;;20.68;36.11;100003.37;1720755;82;22037;-58
2022/05/17 03:30:59;;;;;;;42.67;22.57;;;;;;;21.46;35.80;99993.69;1724459;82;22541;-56
2022/05/17 03:33:26;;;;;;;42.40;22.70;;;;;;;22.84;34.32;99988.38;1720877;82;22185;-55
2022/05/17 03:35:53;;;;;;;40.80;21.00;;;;;;;23.77;32.27;99985.05;1718787;82;21141;-54
2022/05/17 03:38:22;;;;;;;36.37;20.50;;;;;;;24.49;31.29;99990.59;1701601;84;21236;-58
2022/05/17 03:40:51;;;;;;;37.83;21.73;;;;;;;24.79;29.66;99988.69;1655675;85;21123;-54
2022/05/17 03:43:20;;;;;;;41.40;21.03;;;;;;;24.09;29.46;99993.05;1723828;82;21004;-54
2022/05/17 03:45:49;;;;;;;36.33;20.70;;;;;;;24.43;28.98;99993.05;1722959;82;21866;-57
2022/05/17 03:48:16;;;;;;;42.57;21.97;;;;;;;24.38;28.88;99997.06;1712952;82;21350;-57
2022/05/17 03:50:45;;;;;;;39.80;21.00;;;;;;;24.76;28.65;99999.92;1707934;82;21502;-57
2022/05/17 03:53:13;;;;;;;36.83;21.63;;;;;;;25.41;28.01;99996.20;1729759;82;21331;-60
2022/05/17 03:55:42;;;;;;;34.43;20.60;;;;;;;26.44;26.77;99989.55;1714260;82;21431;-57
2022/05/17 03:58:11;;;;;;;37.13;21.13;;;;;;;27.11;26.30;99981.62;1711800;82;21159;-55
2022/05/17 04:00:38;;;;;;;34.53;19.97;;;;;;;28.12;24.93;99979.06;1721101;82;21098;-63
2022/05/17 04:03:06;;;;;;;35.43;20.93;;;;;;;28.63;24.07;99979.07;1715917;82;21032;-53
2022/05/17 04:05:33;;;;;;;39.00;21.93;;;;;;;28.47;23.50;99984.62;1694604;83;21035;-55
2022/05/17 04:08:00;;;;;;;32.03;18.90;;;;;;;28.69;23.38;99977.84;1707464;83;21072;-54
2022/05/17 04:10:27;;;;;;;30.90;18.80;;;;;;;29.11;22.82;99980.97;1707503;83;21491;-53
2022/05/17 04:12:54;;;;;;;31.40;19.50;;;;;;;30.29;21.81;99973.48;1698311;83;20983;-62
2022/05/17 04:15:23;;;;;;;29.07;18.47;;;;;;;31.14;20.93;99971.80;1687223;83;21674;-62
2022/05/17 04:17:54;;;;;;;26.57;16.70;;;;;;;32.10;20.23;99971.80;1698962;84;21131;-56
2022/05/17 04:22:09;;;;;;;24.83;17.30;;;;;;;33.40;18.90;99972.18;1793806;78;22603;-54
2022/05/17 04:24:36;;;;;;;21.07;14.68;;;;;;;34.36;18.24;99967.21;1773460;80;21259;-55
2022/05/17 04:27:04;;;;;;;21.70;13.85;;;;;;;35.28;17.17;99966.38;1771882;80;21655;-56
2022/05/17 04:29:31;;;;;;;21.93;12.25;;;;;;;35.86;16.43;99968.25;1782941;80;21549;-56
2022/05/17 04:31:58;;;;;;;18.23;12.30;;;;;;;36.43;15.93;99963.79;1783938;80;21033;-54
2022/05/17 04:34:25;;;;;;;14.53;9.63;;;;;;;36.87;15.37;99955.14;1783358;80;20919;-55
2022/05/17 04:36:53;;;;;;;13.90;8.63;;;;;;;37.32;14.70;99962.91;1784043;80;21041;-54
2022/05/17 04:39:20;;;;;;;11.38;8.60;;;;;;;37.52;14.03;99964.12;1783695;80;21215;-62
2022/05/17 04:41:47;;;;;;;12.50;7.28;;;;;;;37.47;13.54;99969.32;1783294;80;20982;-56
2022/05/17 04:44:15;;;;;;;11.18;7.30;;;;;;;37.67;13.48;99973.98;1783268;80;21426;-54
2022/05/17 04:46:42;;;;;;;11.40;6.78;;;;;;;37.84;12.90;99967.92;1784207;80;20992;-54
2022/05/17 04:49:09;;;;;;;9.78;5.40;;;;;;;37.54;12.84;99967.23;1784400;80;21153;-56
2022/05/17 04:51:36;;;;;;;10.90;5.78;;;;;;;37.26;13.34;99963.80;1783169;80;21141;-55
2022/05/17 04:54:04;;;;;;;10.63;5.70;;;;;;;37.54;13.03;99969.95;1783286;80;20963;-54
2022/05/17 04:56:33;;;;;;;9.40;4.78;;;;;;;37.76;12.69;99966.30;1783264;80;21567;-55
2022/05/17 04:59:00;;;;;;;8.78;5.12;;;;;;;38.01;12.56;99971.23;1783504;80;20998;-61
2022/05/17 05:01:28;;;;;;;7.62;4.05;;;;;;;38.08;12.52;99976.73;1783654;80;22058;-56
2022/05/17 05:03:55;;;;;;;7.33;4.17;;;;;;;37.95;12.21;99979.72;1784175;80;22094;-55
2022/05/17 05:06:23;;;;;;;6.90;4.22;;;;;;;37.46;12.56;99978.03;1782586;80;20979;-54
2022/05/17 05:08:50;;;;;;;7.15;3.67;;;;;;;37.72;12.45;99976.36;1783772;80;21101;-56
2022/05/17 05:11:17;;;;;;;5.42;3.00;;;;;;;37.80;12.69;99973.91;1783045;80;21434;-54
2022/05/17 05:13:45;;;;;;;6.83;2.85;;;;;;;38.00;12.24;99981.34;1783975;80;21013;-54
2022/05/17 05:16:12;;;;;;;6.87;3.00;;;;;;;38.04;12.06;99971.84;1783693;80;21591;-57
2022/05/17 05:18:40;;;;;;;4.55;2.50;;;;;;;38.11;11.96;99974.60;1772843;80;21474;-56
2022/05/17 05:21:11;;;;;;;4.60;2.50;;;;;;;38.03;11.91;99974.34;1781227;80;21422;-55
2022/05/17 05:23:41;;;;;;;7.65;3.00;;;;;;;38.16;11.78;99964.16;1779086;80;21010;-56
2022/05/17 05:26:10;;;;;;;5.42;2.52;;;;;;;38.12;11.76;99972.10;1778679;80;21341;-56
2022/05/17 05:28:39;;;;;;;;;;;;;;;37.66;11.74;99971.08;1781452;80;21463;-56
2022/05/17 05:31:06;;;;;;;5.45;1.95;;;;;;;37.63;11.54;99973.95;1777704;80;20111;-55
2022/05/17 05:33:34;;;;;;;3.55;2.12;;;;;;;37.40;11.92;99971.34;1778165;80;21525;-54
2022/05/17 05:36:02;;;;;;;5.12;1.95;;;;;;;37.47;11.77;99974.76;1778641;80;21655;-62
2022/05/17 05:38:29;;;;;;;5.22;1.92;;;;;;;37.80;11.88;99975.27;1777824;80;21556;-54
2022/05/17 05:40:56;;;;;;;2.92;1.35;;;;;;;38.10;11.53;99975.18;1777263;80;21800;-60
2022/05/17 05:43:25;;;;;;;2.80;1.32;;;;;;;38.24;11.10;99965.00;1777055;80;21014;-56
2022/05/17 05:45:52;;;;;;;2.80;1.02;;;;;;;38.06;11.07;99963.48;1778532;80;20956;-54
2022/05/17 05:48:20;;;;;;;3.12;1.20;;;;;;;37.52;11.23;99962.76;1777951;80;20959;-57
2022/05/17 05:50:50;;;;;;;2.45;0.90;;;;;;;36.92;11.59;99958.89;1777460;80;21061;-62
2022/05/17 05:53:17;;;;;;;4.05;1.20;;;;;;;36.58;11.75;99961.33;1777285;80;26698;-54
2022/05/17 05:55:45;;;;;;;2.02;0.80;;;;;;;36.17;11.54;99961.05;1778791;80;20939;-55
2022/05/17 05:58:12;;;;;;;1.67;0.80;;;;;;;35.75;11.68;99973.48;1777998;80;21141;-55
2022/05/17 06:00:41;;;;;;;2.98;0.80;;;;;;;35.34;12.18;99969.56;1765266;80;21003;-55
2022/05/17 06:03:08;;;;;;;1.57;0.80;;;;;;;35.53;12.36;99963.37;1777603;80;21475;-58
2022/05/17 06:05:37;;;;;;;2.45;0.70;;;;;;;35.67;12.34;99969.08;1778284;80;21264;-58
2022/05/17 06:08:05;;;;;;;1.40;0.60;;;;;;;35.96;12.12;99952.75;1777994;80;21063;-57
2022/05/17 06:10:32;;;;;;;1.17;0.57;;;;;;;36.14;11.93;99965.84;1777657;80;21027;-63
2022/05/17 06:12:59;;;;;;;1.50;0.90;;;;;;;36.18;12.03;99957.99;1777698;80;20979;-64
2022/05/17 06:15:27;;;;;;;1.85;1.22;;;;;;;36.17;11.76;99948.84;1777824;80;20992;-57
2022/05/17 06:17:54;;;;;;;2.02;0.85;;;;;;;36.02;11.84;99947.23;1778430;80;21811;-56
2022/05/17 06:20:21;;;;;;;8.85;1.12;;;;;;;35.90;12.31;99958.25;1777818;80;21051;-57
2022/05/17 06:22:48;;;;;;;1.70;0.95;;;;;;;36.08;12.09;99946.95;1777576;80;20987;-64
2022/05/17 06:25:16;;;;;;;2.52;1.20;;;;;;;35.90;12.13;99944.69;1778124;80;21031;-57
2022/05/17 06:27:43;;;;;;;2.47;1.07;;;;;;;35.74;12.40;99950.23;1778270;80;20975;-57
2022/05/17 06:30:11;;;;;;;2.45;0.82;;;;;;;36.14;12.39;99950.37;1778489;80;21247;-56
2022/05/17 06:32:38;;;;;;;4.87;1.10;;;;;;;36.28;12.10;99941.64;1766039;80;21077;-56
2022/05/17 06:35:06;;;;;;;3.30;1.00;;;;;;;35.90;12.09;99952.82;1778258;80;20931;-56
2022/05/17 06:37:33;;;;;;;2.52;1.10;;;;;;;35.56;12.25;99941.76;1777817;80;21787;-56
2022/05/17 06:40:03;;;;;;;1.50;0.85;;;;;;;35.16;12.49;99944.84;1778410;80;21824;-56
2022/05/17 06:42:32;;;;;;;1.52;0.90;;;;;;;35.02;12.45;99937.20;1777846;80;21163;-57
2022/05/17 06:44:59;;;;;;;1.95;0.95;;;;;;;34.74;12.73;99936.55;1777873;80;21161;-57
2022/05/17 06:47:27;;;;;;;2.62;1.25;;;;;;;34.69;13.09;99930.06;1777587;80;21029;-56
2022/05/17 06:49:55;;;;;;;1.85;0.82;;;;;;;35.02;13.03;99929.65;1778523;80;21046;-58
2022/05/17 06:52:23;;;;;;;2.27;1.05;;;;;;;35.40;13.04;99930.20;1778323;80;21054;-56
2022/05/17 06:54:51;;;;;;;2.00;1.02;;;;;;;35.73;12.72;99918.06;1778672;80;21470;-63
2022/05/17 06:57:18;;;;;;;1.82;1.00;;;;;;;35.88;12.60;99911.73;1777202;80;21085;-55
2022/05/17 06:59:47;;;;;;;1.42;1.00;;;;;;;35.75;12.58;99914.40;1778553;80;21246;-56
2022/05/17 07:02:14;;;;;;;2.20;1.00;;;;;;;35.53;12.59;99923.50;1778231;80;21111;-56
2022/05/17 07:04:41;;;;;;;5.37;1.42;;;;;;;35.48;12.78;99910.22;1779061;80;20936;-64
2022/05/17 07:07:09;;;;;;;2.58;0.90;;;;;;;35.48;13.09;99911.57;1777836;80;21786;-56
2022/05/17 07:09:37;;;;;;;2.05;0.80;;;;;;;35.34;13.07;99905.30;1778485;80;21736;-56
2022/05/17 07:14:51;;;;;;;3.98;1.70;;;;;;;35.47;12.99;99907.88;1778445;80;21008;-62
2022/05/17 07:17:20;;;;;;;1.70;1.10;;;;;;;35.49;12.99;99904.22;1778967;80;21490;-55
2022/05/17 07:19:47;;;;;;;1.25;0.80;;;;;;;35.42;12.82;99906.25;1779087;80;21897;-55
2022/05/17 07:22:14;;;;;;;2.45;1.00;;;;;;;35.57;12.80;99902.69;1772271;80;20933;-55
2022/05/17 07:24:46;;;;;;;4.12;1.30;;;;;;;35.34;12.73;99912.08;1769962;80;26996;-60
2022/05/17 07:27:13;;;;;;;1.47;0.90;;;;;;;34.84;13.17;99907.57;1768335;80;20979;-61
2022/05/17 07:29:41;;;;;;;2.65;1.32;;;;;;;34.57;12.82;99910.09;1769456;80;21110;-55
2022/05/17 07:32:09;;;;;;;3.35;0.90;;;;;;;34.08;13.01;99910.48;1769737;80;21494;-57
2022/05/17 07:34:36;;;;;;;3.90;1.12;;;;;;;33.29;13.14;99921.69;1768783;80;21027;-63
2022/05/17 07:37:04;;;;;;;2.75;1.30;;;;;;;32.84;13.71;99910.53;1768779;80;21602;-57
2022/05/17 07:39:38;;;;;;;2.08;0.95;;;;;;;32.69;13.85;99924.98;1695369;79;21101;-55
2022/05/17 07:42:07;;;;;;;2.72;1.02;;;;;;;32.76;14.20;99902.01;1696747;84;21628;-56
2022/05/17 07:44:34;;;;;;;8.18;1.67;;;;;;;32.99;14.17;99908.50;1696357;84;21237;-63
2022/05/17 07:47:02;;;;;;;3.67;0.90;;;;;;;32.82;13.92;99903.36;1695723;84;21296;-62
2022/05/17 07:49:30;;;;;;;2.33;1.22;;;;;;;32.40;14.11;99917.91;1696749;84;21515;-58
2022/05/17 07:51:58;;;;;;;3.30;1.10;;;;;;;32.01;14.59;99899.64;1696592;84;21050;-57
2022/05/17 07:54:25;;;;;;;1.37;0.80;;;;;;;32.22;14.62;99895.73;1696422;84;20994;-61
2022/05/17 07:56:53;;;;;;;1.57;0.90;;;;;;;32.63;14.33;99895.29;1695827;84;22216;-58
2022/05/17 07:59:20;;;;;;;3.05;0.80;;;;;;;32.81;14.39;99885.59;1696800;84;21686;-56
2022/05/17 08:01:47;;;;;;;1.47;0.90;;;;;;;33.02;14.15;99888.14;1696774;84;21559;-56
2022/05/17 08:04:16;;;;;;;5.03;1.00;;;;;;;32.91;13.88;99889.92;1696897;83;20968;-55
2022/05/17 08:06:43;;;;;;;2.08;0.90;;;;;;;32.52;14.38;99897.44;1696286;84;20967;-64
2022/05/17 08:09:12;;;;;;;2.35;0.70;;;;;;;32.29;14.60;99894.39;1697483;84;21999;-56
2022/05/17 08:11:40;;;;;;;1.87;0.60;;;;;;;31.81;14.96;99906.66;1686277;84;21019;-55
2022/05/17 08:14:08;;;;;;;2.40;0.70;;;;;;;31.20;15.09;99893.19;1697140;84;21045;-55
2022/05/17 08:16:37;;;;;;;4.43;0.77;;;;;;;30.81;15.69;99881.56;1696355;84;21090;-61
2022/05/17 08:19:04;;;;;;;2.83;1.00;;;;;;;30.32;15.94;99894.64;1696696;84;20987;-54
2022/05/17 08:21:31;;;;;;;3.23;0.63;;;;;;;30.36;15.82;99889.63;1697305;84;21259;-54
2022/05/17 08:23:58;;;;;;;3.50;0.83;;;;;;;30.93;15.88;99878.93;1697015;84;21535;-56
2022/05/17 08:29:12;;;;;;;2.07;0.77;;;;;;;32.28;15.15;99877.42;1697025;84;21077;-56
2022/05/17 08:31:39;;;;;;;1.00;0.47;;;;;;;32.84;14.78;99870.04;1685978;84;21086;-55
2022/05/17 08:34:08;;;;;;;2.20;0.80;;;;;;;33.05;14.13;99878.00;1697388;84;21250;-54
2022/05/17 08:36:36;;;;;;;1.97;0.60;;;;;;;32.62;14.42;99880.80;1696197;84;21014;-56
2022/05/17 08:39:04;;;;;;;1.50;0.70;;;;;;;31.96;14.49;99862.91;1708970;83;21450;-56
2022/05/17 08:41:42;;;;;;;1.40;0.50;;;;;;;31.02;15.14;99872.91;1717346;83;20981;-58
2022/05/17 08:44:14;;;;;;;2.00;0.70;;;;;;;30.10;15.94;99872.80;1717374;83;21048;-59
2022/05/17 08:47:05;;;;;;;2.57;0.70;;;;;;;29.99;16.30;99865.08;1705612;83;21132;-59
2022/05/17 08:49:59;;;;;;;2.98;0.55;;;;;;;29.98;16.65;99860.05;1717267;83;28172;-56
2022/05/17 08:52:27;;;;;;;1.60;0.50;;;;;;;29.97;16.73;99865.19;1716647;83;20965;-55
2022/05/17 08:55:06;;;;;;;1.50;0.43;;;;;;;29.90;16.48;99878.34;1717296;83;21009;-57
2022/05/17 08:57:41;;;;;;;1.60;0.67;;;;;;;29.39;16.95;99887.48;1715779;83;21100;-57
2022/05/17 09:00:31;;;;;;;1.07;0.40;;;;;;;29.21;17.09;99881.89;1716865;83;21583;-63
2022/05/17 09:03:10;;;;;;;1.67;0.50;;;;;;;29.42;17.35;99878.02;1716430;83;21048;-64
2022/05/17 09:05:54;;;;;;;3.17;0.60;;;;;;;29.75;17.32;99864.87;1716599;83;20988;-63
2022/05/17 09:09:09;;;;;;;3.00;0.70;;;;;;;29.82;16.81;99870.54;1716852;83;21069;-55
2022/05/17 09:11:54;;;;;;;5.23;0.50;;;;;;;29.53;17.07;99872.55;1716980;83;21037;-55
2022/05/17 09:14:24;;;;;;;1.50;0.57;;;;;;;29.36;17.59;99865.84;1716995;83;21657;-57
2022/05/17 09:17:00;;;;;;;3.03;1.37;;;;;;;29.76;17.56;99857.81;1717238;83;20954;-56
2022/05/17 09:19:27;;;;;;;1.27;0.40;;;;;;;29.93;17.46;99853.48;1716237;83;21025;-57
2022/05/17 09:21:59;;;;;;;2.03;0.50;;;;;;;29.91;17.18;99861.88;1716987;83;20973;-57
2022/05/17 09:24:26;;;;;;;3.43;0.60;;;;;;;29.86;16.71;99858.59;1716833;83;21417;-63
2022/05/17 09:27:13;;;;;;;2.60;0.40;;;;;;;29.47;17.12;99855.02;1716987;83;21347;-55
2022/05/17 09:29:44;;;;;;;1.60;0.40;;;;;;;28.89;17.60;99866.47;1715293;83;21341;-57
2022/05/17 09:32:12;;;;;;;0.90;0.43;;;;;;;28.61;17.87;99866.76;1717010;83;20945;-57
2022/05/17 09:34:43;;;;;;;3.20;0.37;;;;;;;28.63;17.39;99866.98;1706074;83;21192;-56
2022/05/17 09:37:19;;;;;;;3.00;0.93;;;;;;;28.45;17.16;99870.17;1716950;83;20953;-56
2022/05/17 09:39:52;;;;;;;4.23;1.00;;;;;;;28.29;17.14;99869.79;1716729;83;21806;-56
2022/05/17 09:42:28;;;;;;;4.17;1.10;;;;;;;28.23;17.46;99867.81;1716494;83;21002;-56
2022/05/17 09:44:56;;;;;;;2.33;0.60;;;;;;;28.31;17.36;99869.73;1709815;83;20970;-55
2022/05/17 09:47:33;;;;;;;2.90;0.70;;;;;;;28.43;17.84;99867.03;1716284;83;20993;-57
2022/05/17 09:53:07;;;;;;;9.53;0.80;;;;;;;29.68;16.60;99843.08;1714793;83;21885;-57
2022/05/17 09:55:35;;;;;;;1.33;0.50;;;;;;;30.34;15.68;99841.31;1716732;83;20992;-55
2022/05/17 09:58:32;;;;;;;4.67;0.40;;;;;;;30.81;15.40;99837.16;1716628;83;21370;-54
2022/05/17 10:01:01;;;;;;;4.43;1.53;;;;;;;30.66;15.32;99851.39;1707701;83;21542;-54
2022/05/17 10:03:34;;;;;;;3.67;1.43;;;;;;;30.19;14.73;99846.69;1716451;83;21832;-54
2022/05/17 10:06:15;;;;;;;2.37;1.23;;;;;;;29.81;15.11;99848.79;1717168;83;21134;-62
2022/05/17 10:09:07;;;;;;;3.50;1.30;;;;;;;29.41;15.47;99860.33;1716878;83;24969;-60
2022/05/17 10:11:52;;;;;;;2.90;0.80;;;;;;;28.93;16.02;99848.63;1654905;86;21217;-55
2022/05/17 10:14:44;;;;;;;2.17;0.70;;;;;;;28.53;16.34;99847.98;1632933;86;21573;-58
2022/05/17 10:17:15;;;;;;;6.37;1.17;;;;;;;28.40;16.80;99852.34;1696562;83;21053;-58
2022/05/17 10:19:59;;;;;;;4.03;0.73;;;;;;;28.68;16.97;99850.21;1716892;83;22060;-57
2022/05/17 10:22:42;;;;;;;1.60;0.70;;;;;;;29.35;16.37;99843.58;1717477;83;21035;-56
2022/05/17 10:25:22;;;;;;;4.30;1.55;;;;;;;29.97;15.87;99828.91;1717276;83;21056;-54
2022/05/17 10:27:57;;;;;;;6.10;1.80;;;;;;;30.19;15.37;99842.13;1717341;83;22057;-54
2022/05/17 10:30:35;;;;;;;3.67;1.43;;;;;;;30.13;15.41;99836.66;1717145;83;21065;-54
2022/05/17 10:33:05;;;;;;;5.23;2.20;;;;;;;29.77;15.59;99856.70;1699868;83;21388;-58
2022/05/17 10:35:50;;;;;;;4.70;2.30;;;;;;;29.31;16.01;99856.07;1717213;83;21362;-57
2022/05/17 10:38:31;;;;;;;5.43;2.33;;;;;;;28.89;16.26;99857.08;1716822;83;21017;-56
2022/05/17 10:40:59;;;;;;;4.22;1.52;;;;;;;28.32;16.71;99858.45;1716009;83;21005;-56
2022/05/17 10:43:37;;;;;;;3.77;1.27;;;;;;;28.11;17.21;99852.33;1716493;83;21001;-54
2022/05/17 10:46:20;;;;;;;2.10;0.80;;;;;;;27.93;17.22;99849.88;1717328;83;22297;-57
2022/05/17 10:49:33;;;;;;;2.90;0.80;;;;;;;27.83;17.51;99847.70;1716899;83;20938;-56
2022/05/17 10:52:13;;;;;;;1.20;0.30;;;;;;;27.87;17.30;99845.98;1716382;83;21017;-62
2022/05/17 10:55:22;;;;;;;3.47;0.65;;;;;;;27.78;17.43;99843.82;1717180;83;21073;-56
2022/05/17 10:57:54;;;;;;;4.80;0.80;;;;;;;27.64;17.63;99844.42;1717150;83;21061;-56
2022/05/17 11:00:39;;;;;;;2.77;0.50;;;;;;;27.56;17.53;99851.86;1717115;83;21248;-56
2022/05/17 11:03:33;;;;;;;1.67;0.60;;;;;;;27.72;17.63;99848.23;1716977;83;20974;-56
2022/05/17 11:06:20;;;;;;;2.20;0.90;;;;;;;27.74;17.62;99840.18;1696491;83;21002;-55
2022/05/17 11:09:18;;;;;;;2.57;0.90;;;;;;;27.55;17.76;99840.91;1694435;83;21002;-55
2022/05/17 11:12:01;;;;;;;3.07;0.97;;;;;;;27.38;18.22;99841.58;1702271;83;20994;-55
2022/05/17 11:14:42;;;;;;;4.53;1.47;;;;;;;27.70;18.32;99845.09;1717969;83;21485;-57
2022/05/17 11:17:20;;;;;;;3.42;1.65;;;;;;;28.05;18.20;99847.41;1711972;83;21594;-55
2022/05/17 11:20:14;;;;;;;4.37;1.83;;;;;;;28.08;18.08;99847.58;1707571;83;20969;-56
2022/05/17 11:23:14;;;;;;;4.80;1.73;;;;;;;28.05;18.21;99847.41;1717389;83;20990;-55
2022/05/17 11:26:29;;;;;;;2.50;1.10;;;;;;;27.95;17.82;99852.48;1717412;83;21047;-56
2022/05/17 11:29:14;;;;;;;4.80;0.80;;;;;;;27.70;18.32;99854.47;1717579;83;22083;-55
2022/05/17 11:32:01;;;;;;;2.17;0.80;;;;;;;27.47;18.38;99844.34;1716525;83;22322;-56
2022/05/17 11:34:33;;;;;;;2.80;1.00;;;;;;;27.21;18.78;99846.83;1717266;83;21060;-55
2022/05/17 11:37:05;;;;;;;1.93;0.57;;;;;;;27.02;18.79;99848.30;1717190;83;20993;-57
2022/05/17 11:39:40;;;;;;;2.33;1.10;;;;;;;26.96;19.04;99849.50;1717302;83;21449;-55
2022/05/17 11:42:33;;;;;;;2.30;0.80;;;;;;;27.00;19.16;99845.12;1716482;83;21475;-55
2022/05/17 11:45:21;;;;;;;3.40;0.60;;;;;;;27.35;19.32;99829.62;1716696;83;21033;-55
2022/05/17 11:47:56;;;;;;;1.43;0.40;;;;;;;27.77;19.09;99836.08;1717208;83;21242;-55
2022/05/17 11:50:35;;;;;;;0.70;0.30;;;;;;;28.05;18.56;99836.69;1716738;83;21096;-64
2022/05/17 11:53:27;;;;;;;4.07;0.60;;;;;;;27.96;18.80;99825.13;1717167;83;21505;-59
2022/05/17 11:56:26;;;;;;;2.07;0.50;;;;;;;28.20;18.70;99829.56;1717174;83;21147;-62
2022/05/17 11:59:12;;;;;;;1.53;0.60;;;;;;;28.49;18.35;99818.84;1717021;83;20986;-55
2022/05/17 12:01:43;;;;;;;0.70;0.30;;;;;;;28.42;18.54;99818.55;1681245;83;21075;-57
2022/05/17 12:04:36;;;;;;;2.87;0.62;;;;;;;28.45;18.44;99805.83;1716900;83;21024;-57